createdAt,value
2018-09-28T00:00:57.259Z,85.61
2018-09-28T00:01:57.252Z,85.51
2018-09-28T00:02:57.253Z,85.61
2018-09-28T00:03:57.236Z,85.30
2018-09-28T00:04:57.219Z,85.92
2018-09-28T00:05:57.204Z,85.71
2018-09-28T00:06:57.203Z,86.02
2018-09-28T00:07:57.190Z,85.61
2018-09-28T00:08:57.192Z,86.16
2018-09-28T00:09:57.154Z,85.65
2018-09-28T00:10:57.149Z,85.75
2018-09-28T00:11:57.140Z,86.06
2018-09-28T00:12:57.124Z,86.06
2018-09-28T00:13:57.114Z,86.37
2018-09-28T00:14:57.145Z,87.09
2018-09-28T00:15:57.084Z,87.36
2018-09-28T00:16:57.076Z,87.87
2018-09-28T00:17:57.069Z,87.26
2018-09-28T00:18:57.068Z,87.36
2018-09-28T00:19:57.060Z,87.40
2018-09-28T00:20:57.037Z,87.36
2018-09-28T00:21:57.016Z,87.67
2018-09-28T00:22:57.022Z,87.81
2018-09-28T00:23:57.017Z,87.81
2018-09-28T00:24:56.999Z,87.60
2018-09-28T00:25:57.022Z,87.71
2018-09-28T00:26:56.960Z,87.71
2018-09-28T00:27:56.966Z,87.71
2018-09-28T00:28:56.975Z,87.60
2018-09-28T00:29:56.948Z,87.60
2018-09-28T00:30:56.917Z,87.71
2018-09-28T00:31:56.904Z,88.23
2018-09-28T00:32:56.899Z,87.71
2018-09-28T00:33:56.880Z,88.84
2018-09-28T00:34:56.883Z,88.23
2018-09-28T00:35:56.966Z,87.71
2018-09-28T00:36:56.845Z,87.19
2018-09-28T00:37:56.849Z,87.81
2018-09-28T00:38:56.822Z,87.19
2018-09-28T00:39:56.811Z,87.30
2018-09-28T00:40:56.850Z,87.30
2018-09-28T00:41:56.789Z,87.60
2018-09-28T00:42:56.814Z,87.71
2018-09-28T00:43:56.779Z,88.02
2018-09-28T00:44:56.754Z,87.71
2018-09-28T00:45:56.769Z,87.81
2018-09-28T00:46:56.757Z,87.09
2018-09-28T00:47:56.735Z,86.93
2018-09-28T00:48:56.704Z,86.47
2018-09-28T00:49:56.703Z,87.51
2018-09-28T00:50:56.698Z,88.33
2018-09-28T00:51:56.693Z,88.23
2018-09-28T00:52:56.676Z,87.92
2018-09-28T00:53:56.663Z,87.92
2018-09-28T00:54:56.647Z,87.30
2018-09-28T00:55:56.636Z,87.51
2018-09-28T00:56:56.637Z,87.40
2018-09-28T00:57:56.614Z,87.30
2018-09-28T00:58:56.597Z,86.82
2018-09-28T00:59:56.580Z,86.79
2018-09-28T01:00:56.572Z,86.93
2018-09-28T01:01:56.589Z,87.03
2018-09-28T01:02:56.556Z,86.93
2018-09-28T01:03:56.544Z,86.82
2018-09-28T01:04:56.529Z,86.88
2018-09-28T01:05:56.514Z,86.93
2018-09-28T01:06:56.548Z,86.61
2018-09-28T01:07:56.502Z,86.61
2018-09-28T01:08:56.497Z,86.82
2018-09-28T01:09:56.481Z,87.60
2018-09-28T01:10:56.455Z,87.13
2018-09-28T01:11:56.510Z,86.99
2018-09-28T01:12:56.447Z,86.93
2018-09-28T01:13:56.440Z,87.24
2018-09-28T01:14:56.429Z,87.44
2018-09-28T01:15:56.428Z,87.71
2018-09-28T01:16:56.414Z,87.92
2018-09-28T01:17:56.393Z,87.60
2018-09-28T01:18:56.371Z,87.71
2018-09-28T01:19:56.372Z,88.84
2018-09-28T01:20:56.359Z,88.53
2018-09-28T01:21:56.338Z,88.74
2018-09-28T01:22:56.348Z,88.84
2018-09-28T01:23:56.313Z,88.84
2018-09-28T01:24:56.301Z,88.84
2018-09-28T01:25:56.292Z,88.80
2018-09-28T01:26:56.283Z,89.42
2018-09-28T01:27:56.297Z,88.18
2018-09-28T01:28:56.261Z,88.39
2018-09-28T01:29:56.246Z,88.08
2018-09-28T01:30:56.228Z,88.29
2018-09-28T01:31:56.256Z,89.22
2018-09-28T01:32:56.253Z,88.90
2018-09-28T01:33:56.196Z,89.17
2018-09-28T01:34:56.189Z,89.17
2018-09-28T01:35:56.186Z,89.07
2018-09-28T01:36:56.204Z,89.69
2018-09-28T01:37:56.171Z,88.86
2018-09-28T01:38:56.155Z,88.82
2018-09-28T01:39:56.128Z,88.24
2018-09-28T01:40:56.117Z,87.94
2018-09-28T01:41:56.128Z,87.90
2018-09-28T01:42:56.143Z,88.62
2018-09-28T01:43:56.086Z,88.24
2018-09-28T01:44:56.069Z,88.86
2018-09-28T01:45:56.057Z,88.14
2018-09-28T01:46:56.052Z,88.51
2018-09-28T01:47:56.046Z,88.14
2018-09-28T01:48:56.046Z,89.17
2018-09-28T01:49:56.032Z,88.66
2018-09-28T01:50:56.006Z,88.96
2018-09-28T01:51:55.992Z,89.07
2018-09-28T01:52:55.980Z,88.24
2018-09-28T01:53:56.038Z,87.57
2018-09-28T01:54:55.958Z,88.45
2018-09-28T01:55:55.963Z,88.24
2018-09-28T01:56:55.944Z,88.86
2018-09-28T01:57:55.935Z,88.45
2018-09-28T01:58:55.929Z,88.76
2018-09-28T01:59:55.908Z,88.14
2018-09-28T02:00:55.900Z,88.31
2018-09-28T02:01:55.878Z,88.35
2018-09-28T02:02:55.870Z,88.62
2018-09-28T02:03:55.878Z,88.41
2018-09-28T02:04:55.851Z,88.10
2018-09-28T02:05:55.861Z,88.57
2018-09-28T02:06:55.823Z,88.31
2018-09-28T02:07:55.813Z,88.00
2018-09-28T02:08:55.828Z,88.10
2018-09-28T02:09:55.793Z,87.90
2018-09-28T02:10:55.790Z,88.57
2018-09-28T02:11:55.767Z,88.27
2018-09-28T02:12:55.754Z,88.78
2018-09-28T02:13:55.761Z,88.06
2018-09-28T02:14:55.734Z,88.06
2018-09-28T02:15:55.817Z,89.15
2018-09-28T02:16:55.728Z,88.64
2018-09-28T02:17:55.701Z,88.64
2018-09-28T02:18:55.708Z,88.95
2018-09-28T02:19:55.676Z,88.23
2018-09-28T02:20:55.684Z,87.82
2018-09-28T02:21:55.667Z,87.88
2018-09-28T02:22:55.662Z,88.08
2018-09-28T02:23:55.647Z,88.59
2018-09-28T02:24:55.629Z,87.37
2018-09-28T02:25:55.606Z,87.67
2018-09-28T02:26:55.600Z,87.37
2018-09-28T02:27:55.587Z,87.77
2018-09-28T02:28:55.613Z,87.98
2018-09-28T02:29:55.592Z,87.32
2018-09-28T02:30:55.555Z,86.71
2018-09-28T02:31:55.543Z,87.22
2018-09-28T02:32:55.533Z,87.22
2018-09-28T02:33:55.541Z,86.81
2018-09-28T02:34:55.549Z,86.50
2018-09-28T02:35:55.502Z,86.25
2018-09-28T02:36:55.487Z,86.57
2018-09-28T02:37:55.469Z,86.98
2018-09-28T02:38:55.469Z,86.98
2018-09-28T02:39:55.480Z,86.87
2018-09-28T02:40:55.440Z,86.98
2018-09-28T02:41:55.458Z,86.73
2018-09-28T02:42:55.416Z,87.14
2018-09-28T02:43:55.407Z,86.93
2018-09-28T02:44:55.416Z,86.83
2018-09-28T02:45:55.393Z,86.73
2018-09-28T02:46:55.386Z,86.93
2018-09-28T02:47:55.366Z,86.83
2018-09-28T02:48:55.358Z,86.63
2018-09-28T02:49:55.361Z,86.52
2018-09-28T02:50:55.333Z,86.52
2018-09-28T02:51:55.321Z,86.73
2018-09-28T02:52:55.308Z,87.14
2018-09-28T02:53:55.314Z,86.83
2018-09-28T02:54:55.305Z,86.01
2018-09-28T02:55:55.306Z,86.69
2018-09-28T02:56:55.269Z,86.38
2018-09-28T02:57:55.250Z,87.20
2018-09-28T02:58:55.241Z,86.90
2018-09-28T02:59:55.264Z,86.90
2018-09-28T03:00:55.221Z,86.69
2018-09-28T03:01:55.218Z,86.48
2018-09-28T03:02:55.199Z,86.90
2018-09-28T03:03:55.196Z,86.69
2018-09-28T03:04:55.198Z,86.99
2018-09-28T03:05:55.168Z,86.79
2018-09-28T03:06:55.166Z,86.90
2018-09-28T03:07:55.135Z,86.79
2018-09-28T03:08:55.133Z,87.10
2018-09-28T03:09:55.119Z,87.10
2018-09-28T03:10:55.128Z,86.99
2018-09-28T03:11:55.124Z,86.79
2018-09-28T03:12:55.093Z,86.99
2018-09-28T03:13:55.102Z,86.58
2018-09-28T03:14:55.058Z,86.38
2018-09-28T03:15:55.065Z,86.18
2018-09-28T03:16:55.044Z,86.44
2018-09-28T03:17:55.036Z,86.38
2018-09-28T03:18:55.038Z,86.79
2018-09-28T03:19:55.045Z,85.93
2018-09-28T03:20:55.018Z,85.31
2018-09-28T03:21:55.019Z,85.56
2018-09-28T03:22:54.988Z,85.77
2018-09-28T03:23:54.985Z,85.72
2018-09-28T03:24:54.952Z,85.83
2018-09-28T03:25:55.000Z,85.63
2018-09-28T03:26:54.952Z,85.52
2018-09-28T03:27:54.960Z,85.42
2018-09-28T03:28:54.908Z,85.42
2018-09-28T03:29:54.912Z,85.52
2018-09-28T03:30:54.880Z,85.83
2018-09-28T03:31:54.929Z,86.34
2018-09-28T03:32:54.869Z,85.52
2018-09-28T03:33:54.848Z,86.34
2018-09-28T03:34:54.857Z,86.14
2018-09-28T03:35:54.845Z,85.22
2018-09-28T03:36:54.855Z,85.42
2018-09-28T03:37:54.816Z,85.31
2018-09-28T03:38:54.807Z,85.72
2018-09-28T03:39:54.795Z,85.38
2018-09-28T03:40:54.783Z,86.34
2018-09-28T03:41:54.755Z,85.79
2018-09-28T03:42:54.797Z,85.52
2018-09-28T03:43:54.730Z,85.58
2018-09-28T03:44:54.741Z,85.42
2018-09-28T03:45:54.718Z,85.42
2018-09-28T03:46:54.717Z,85.58
2018-09-28T03:47:54.723Z,84.66
2018-09-28T03:48:54.693Z,84.66
2018-09-28T03:49:54.663Z,85.38
2018-09-28T03:50:54.663Z,84.87
2018-09-28T03:51:54.659Z,85.89
2018-09-28T03:52:54.668Z,85.48
2018-09-28T03:53:54.624Z,85.28
2018-09-28T03:54:54.610Z,85.79
2018-09-28T03:55:54.611Z,85.69
2018-09-28T03:56:54.589Z,85.79
2018-09-28T03:57:54.595Z,85.28
2018-09-28T03:58:54.613Z,85.17
2018-09-28T03:59:54.552Z,85.31
2018-09-28T04:00:54.537Z,85.28
2018-09-28T04:01:54.555Z,85.17
2018-09-28T04:02:54.555Z,84.87
2018-09-28T04:03:54.526Z,84.56
2018-09-28T04:04:54.489Z,85.38
2018-09-28T04:05:54.485Z,84.87
2018-09-28T04:06:54.471Z,85.03
2018-09-28T04:07:54.477Z,85.69
2018-09-28T04:08:54.463Z,85.75
2018-09-28T04:09:54.438Z,85.64
2018-09-28T04:10:54.428Z,85.85
2018-09-28T04:11:54.432Z,84.83
2018-09-28T04:12:54.401Z,84.72
2018-09-28T04:13:54.423Z,84.72
2018-09-28T04:14:54.441Z,84.93
2018-09-28T04:15:54.375Z,85.75
2018-09-28T04:16:54.358Z,84.83
2018-09-28T04:17:54.351Z,84.93
2018-09-28T04:18:54.357Z,85.40
2018-09-28T04:19:54.326Z,84.72
2018-09-28T04:20:54.332Z,85.03
2018-09-28T04:21:54.333Z,85.30
2018-09-28T04:22:54.295Z,85.40
2018-09-28T04:23:54.475Z,85.10
2018-09-28T04:24:54.264Z,85.55
2018-09-28T04:25:54.259Z,85.20
2018-09-28T04:26:54.242Z,85.81
2018-09-28T04:27:54.234Z,85.85
2018-09-28T04:28:54.234Z,85.50
2018-09-28T04:29:54.235Z,85.50
2018-09-28T04:30:54.215Z,85.34
2018-09-28T04:31:54.196Z,85.50
2018-09-28T04:32:54.173Z,85.40
2018-09-28T04:33:54.224Z,85.40
2018-09-28T04:34:54.155Z,85.61
2018-09-28T04:35:54.148Z,84.95
2018-09-28T04:36:54.137Z,84.48
2018-09-28T04:37:54.122Z,84.79
2018-09-28T04:38:54.109Z,84.58
2018-09-28T04:39:54.114Z,85.40
2018-09-28T04:40:54.085Z,85.20
2018-09-28T04:41:54.080Z,85.57
2018-09-28T04:42:54.065Z,85.30
2018-09-28T04:43:54.045Z,85.10
2018-09-28T04:44:54.092Z,85.47
2018-09-28T04:45:54.028Z,85.47
2018-09-28T04:46:54.015Z,86.18
2018-09-28T04:47:54.220Z,86.29
2018-09-28T04:48:53.994Z,86.18
2018-09-28T04:49:54.030Z,86.69
2018-09-28T04:50:54.052Z,86.59
2018-09-28T04:51:53.966Z,87.51
2018-09-28T04:52:53.954Z,86.69
2018-09-28T04:53:53.966Z,86.49
2018-09-28T04:54:54.426Z,88.23
2018-09-28T04:55:53.969Z,88.02
2018-09-28T04:56:53.897Z,87.77
2018-09-28T04:57:53.887Z,87.57
2018-09-28T04:58:53.878Z,87.67
2018-09-28T04:59:53.887Z,88.18
2018-09-28T05:00:53.867Z,87.67
2018-09-28T05:01:53.858Z,87.77
2018-09-28T05:02:53.833Z,88.14
2018-09-28T05:03:53.824Z,87.84
2018-09-28T05:04:53.823Z,88.24
2018-09-28T05:05:53.827Z,88.45
2018-09-28T05:06:53.791Z,88.14
2018-09-28T05:07:53.780Z,89.17
2018-09-28T05:08:53.763Z,88.31
2018-09-28T05:09:53.752Z,89.37
2018-09-28T05:10:53.763Z,88.96
2018-09-28T05:11:53.737Z,88.65
2018-09-28T05:12:53.736Z,88.61
2018-09-28T05:13:53.709Z,88.24
2018-09-28T05:14:53.719Z,88.51
2018-09-28T05:15:53.696Z,88.51
2018-09-28T05:16:53.673Z,88.41
2018-09-28T05:17:53.657Z,89.23
2018-09-28T05:18:53.650Z,88.31
2018-09-28T05:19:53.637Z,88.71
2018-09-28T05:20:53.650Z,89.12
2018-09-28T05:21:53.631Z,89.12
2018-09-28T05:22:53.604Z,89.53
2018-09-28T05:23:53.617Z,89.49
2018-09-28T05:24:53.586Z,90.20
2018-09-28T05:25:53.587Z,90.10
2018-09-28T05:26:53.557Z,90.00
2018-09-28T05:27:53.574Z,89.69
2018-09-28T05:28:53.534Z,89.18
2018-09-28T05:29:53.523Z,89.28
2018-09-28T05:30:53.962Z,89.96
2018-09-28T05:31:53.723Z,90.00
2018-09-28T05:32:53.573Z,89.69
2018-09-28T05:33:53.477Z,89.75
2018-09-28T05:34:53.461Z,89.90
2018-09-28T05:35:53.479Z,89.86
2018-09-28T05:36:53.457Z,90.26
2018-09-28T05:37:53.456Z,90.16
2018-09-28T05:38:53.421Z,89.75
2018-09-28T05:39:53.412Z,89.86
2018-09-28T05:40:53.414Z,89.96
2018-09-28T05:41:53.394Z,90.26
2018-09-28T05:42:53.403Z,90.16
2018-09-28T05:43:53.500Z,89.65
2018-09-28T05:44:53.350Z,90.06
2018-09-28T05:45:53.369Z,89.96
2018-09-28T05:46:53.331Z,89.51
2018-09-28T05:47:53.333Z,89.81
2018-09-28T05:48:53.308Z,89.96
2018-09-28T05:49:53.312Z,89.40
2018-09-28T05:50:53.281Z,89.81
2018-09-28T05:51:53.277Z,89.92
2018-09-28T05:52:53.297Z,89.51
2018-09-28T05:53:53.271Z,89.81
2018-09-28T05:54:53.235Z,89.10
2018-09-28T05:55:53.231Z,89.71
2018-09-28T05:56:53.223Z,89.71
2018-09-28T05:57:53.232Z,90.01
2018-09-28T05:58:53.190Z,89.61
2018-09-28T05:59:53.188Z,89.51
2018-09-28T06:00:53.176Z,88.96
2018-09-28T06:01:53.193Z,89.30
2018-09-28T06:02:53.200Z,89.06
2018-09-28T06:03:53.135Z,88.85
2018-09-28T06:04:53.127Z,89.26
2018-09-28T06:05:53.123Z,88.55
2018-09-28T06:06:53.106Z,88.75
2018-09-28T06:07:53.110Z,89.16
2018-09-28T06:08:53.081Z,88.34
2018-09-28T06:09:53.074Z,89.36
2018-09-28T06:10:53.056Z,88.34
2018-09-28T06:11:53.049Z,88.34
2018-09-28T06:12:53.054Z,88.04
2018-09-28T06:13:53.041Z,88.04
2018-09-28T06:14:53.022Z,88.34
2018-09-28T06:15:53.010Z,88.34
2018-09-28T06:16:52.994Z,88.24
2018-09-28T06:17:53.032Z,88.04
2018-09-28T06:18:53.017Z,88.34
2018-09-28T06:19:52.956Z,87.84
2018-09-28T06:20:52.945Z,87.63
2018-09-28T06:21:52.937Z,88.45
2018-09-28T06:22:52.922Z,88.14
2018-09-28T06:23:52.936Z,88.14
2018-09-28T06:24:52.900Z,87.90
2018-09-28T06:25:52.898Z,87.79
2018-09-28T06:26:52.876Z,87.43
2018-09-28T06:27:52.888Z,87.12
2018-09-28T06:28:52.865Z,87.49
2018-09-28T06:29:52.874Z,87.18
2018-09-28T06:30:52.832Z,87.38
2018-09-28T06:31:52.817Z,87.59
2018-09-28T06:32:52.818Z,87.49
2018-09-28T06:33:52.838Z,87.69
2018-09-28T06:34:52.808Z,88.10
2018-09-28T06:35:52.822Z,87.59
2018-09-28T06:36:52.767Z,87.59
2018-09-28T06:37:52.760Z,87.38
2018-09-28T06:38:52.756Z,87.08
2018-09-28T06:39:52.753Z,86.57
2018-09-28T06:40:52.746Z,86.88
2018-09-28T06:41:52.745Z,86.47
2018-09-28T06:42:52.694Z,85.86
2018-09-28T06:43:52.700Z,86.06
2018-09-28T06:44:52.694Z,85.86
2018-09-28T06:45:52.673Z,85.21
2018-09-28T06:46:52.657Z,85.31
2018-09-28T06:47:52.665Z,85.21
2018-09-28T06:48:52.642Z,84.80
2018-09-28T06:49:52.614Z,83.89
2018-09-28T06:50:52.616Z,83.98
2018-09-28T06:51:52.591Z,83.78
2018-09-28T06:52:52.595Z,83.17
2018-09-28T06:53:52.619Z,83.03
2018-09-28T06:54:52.572Z,82.87
2018-09-28T06:55:52.559Z,82.73
2018-09-28T06:56:52.546Z,82.73
2018-09-28T06:57:52.530Z,82.32
2018-09-28T06:58:52.554Z,82.12
2018-09-28T06:59:52.524Z,81.98
2018-09-28T07:00:52.553Z,81.46
2018-09-28T07:01:52.509Z,81.26
2018-09-28T07:02:52.506Z,80.85
2018-09-28T07:03:52.465Z,80.45
2018-09-28T07:04:52.484Z,80.55
2018-09-28T07:05:52.445Z,80.08
2018-09-28T07:06:52.432Z,79.77
2018-09-28T07:07:52.420Z,80.04
2018-09-28T07:08:52.422Z,79.94
2018-09-28T07:09:52.431Z,79.13
2018-09-28T07:10:52.466Z,79.16
2018-09-28T07:11:52.409Z,79.27
2018-09-28T07:12:52.360Z,79.16
2018-09-28T07:13:52.366Z,80.08
2018-09-28T07:14:52.346Z,79.98
2018-09-28T07:15:52.351Z,79.02
2018-09-28T07:16:52.377Z,78.21
2018-09-28T07:17:52.324Z,78.21
2018-09-28T07:18:52.304Z,78.82
2018-09-28T07:19:52.311Z,78.01
2018-09-28T07:20:52.274Z,77.50
2018-09-28T07:21:52.266Z,78.11
2018-09-28T07:22:52.254Z,77.50
2018-09-28T07:23:52.266Z,77.50
2018-09-28T07:24:52.387Z,77.81
2018-09-28T07:25:52.263Z,77.77
2018-09-28T07:26:52.207Z,77.70
2018-09-28T07:27:52.203Z,77.97
2018-09-28T07:28:52.189Z,77.67
2018-09-28T07:29:52.223Z,76.45
2018-09-28T07:30:52.178Z,76.34
2018-09-28T07:31:52.181Z,76.55
2018-09-28T07:32:52.143Z,76.45
2018-09-28T07:33:52.134Z,76.55
2018-09-28T07:34:52.120Z,75.80
2018-09-28T07:35:52.228Z,75.53
2018-09-28T07:36:52.225Z,75.43
2018-09-28T07:37:52.096Z,75.33
2018-09-28T07:38:52.077Z,75.23
2018-09-28T07:39:52.150Z,74.82
2018-09-28T07:40:52.058Z,74.58
2018-09-28T07:41:52.129Z,74.79
2018-09-28T07:42:52.028Z,73.97
2018-09-28T07:43:52.026Z,74.48
2018-09-28T07:44:52.025Z,73.67
2018-09-28T07:45:52.013Z,73.87
2018-09-28T07:46:52.005Z,73.67
2018-09-28T07:47:52.096Z,74.38
2018-09-28T07:48:51.963Z,74.38
2018-09-28T07:49:51.953Z,73.97
2018-09-28T07:50:51.964Z,73.67
2018-09-28T07:51:51.931Z,73.30
2018-09-28T07:52:51.923Z,73.67
2018-09-28T07:53:51.926Z,73.50
2018-09-28T07:54:51.924Z,73.50
2018-09-28T07:55:51.934Z,73.87
2018-09-28T07:56:51.884Z,73.57
2018-09-28T07:57:51.883Z,72.62
2018-09-28T07:58:51.854Z,72.72
2018-09-28T07:59:51.854Z,71.77
2018-09-28T08:00:51.850Z,71.16
2018-09-28T08:01:51.838Z,71.23
2018-09-28T08:02:51.836Z,70.92
2018-09-28T08:03:51.829Z,70.69
2018-09-28T08:04:51.783Z,69.37
2018-09-28T08:05:51.779Z,69.68
2018-09-28T08:06:51.770Z,69.44
2018-09-28T08:07:51.744Z,69.03
2018-09-28T08:08:51.759Z,69.03
2018-09-28T08:09:51.727Z,68.76
2018-09-28T08:10:51.748Z,68.23
2018-09-28T08:11:51.720Z,68.66
2018-09-28T08:12:51.695Z,69.57
2018-09-28T08:13:51.698Z,69.47
2018-09-28T08:14:51.687Z,69.81
2018-09-28T08:15:51.678Z,69.57
2018-09-28T08:16:51.646Z,69.51
2018-09-28T08:17:51.707Z,69.71
2018-09-28T08:18:51.655Z,69.51
2018-09-28T08:19:51.625Z,71.26
2018-09-28T08:20:51.605Z,71.88
2018-09-28T08:21:51.601Z,71.80
2018-09-28T08:22:51.613Z,71.80
2018-09-28T08:23:51.603Z,71.20
2018-09-28T08:24:51.551Z,71.30
2018-09-28T08:25:51.546Z,71.80
2018-09-28T08:26:51.530Z,72.52
2018-09-28T08:27:51.529Z,72.21
2018-09-28T08:28:51.530Z,72.21
2018-09-28T08:29:51.531Z,71.50
2018-09-28T08:30:51.482Z,71.40
2018-09-28T08:31:51.472Z,71.91
2018-09-28T08:32:51.466Z,71.80
2018-09-28T08:33:51.449Z,71.77
2018-09-28T08:34:51.461Z,71.57
2018-09-28T08:35:51.423Z,71.77
2018-09-28T08:36:51.468Z,71.97
2018-09-28T08:37:51.407Z,71.67
2018-09-28T08:38:51.426Z,70.25
2018-09-28T08:39:51.386Z,70.89
2018-09-28T08:40:51.377Z,71.20
2018-09-28T08:41:51.373Z,71.80
2018-09-28T08:42:51.343Z,72.11
2018-09-28T08:43:51.354Z,72.01
2018-09-28T08:44:51.342Z,71.50
2018-09-28T08:45:51.336Z,69.98
2018-09-28T08:46:51.297Z,69.87
2018-09-28T08:47:51.287Z,71.30
2018-09-28T08:48:51.280Z,71.43
2018-09-28T08:49:51.289Z,71.53
2018-09-28T08:50:51.261Z,71.33
2018-09-28T08:51:51.239Z,71.23
2018-09-28T08:52:51.250Z,71.60
2018-09-28T08:53:51.222Z,71.12
2018-09-28T08:54:51.220Z,70.42
2018-09-28T08:55:51.193Z,70.42
2018-09-28T08:56:51.190Z,70.82
2018-09-28T08:57:51.873Z,71.12
2018-09-28T08:58:51.160Z,70.52
2018-09-28T08:59:52.293Z,70.42
2018-09-28T09:00:51.134Z,68.89
2018-09-28T09:01:51.127Z,68.38
2018-09-28T09:02:51.118Z,68.28
2018-09-28T09:03:51.112Z,67.97
2018-09-28T09:04:51.344Z,68.59
2018-09-28T09:05:51.723Z,67.50
2018-09-28T09:06:51.065Z,67.91
2018-09-28T09:07:51.067Z,67.60
2018-09-28T09:08:51.057Z,68.11
2018-09-28T09:09:52.064Z,67.60
2018-09-28T09:10:51.021Z,68.21
2018-09-28T09:11:51.012Z,67.50
2018-09-28T09:12:50.995Z,67.30
2018-09-28T09:13:51.032Z,67.80
2018-09-28T09:14:50.973Z,67.19
2018-09-28T09:15:50.994Z,67.71
2018-09-28T09:16:51.110Z,67.36
2018-09-28T09:17:50.999Z,66.86
2018-09-28T09:18:50.933Z,66.18
2018-09-28T09:19:50.924Z,65.54
2018-09-28T09:20:50.963Z,66.25
2018-09-28T09:21:50.909Z,66.12
2018-09-28T09:22:50.890Z,65.20
2018-09-28T09:23:50.903Z,64.29
2018-09-28T09:24:50.865Z,64.59
2018-09-28T09:25:51.049Z,64.26
2018-09-28T09:26:50.927Z,63.34
2018-09-28T09:27:50.839Z,62.74
2018-09-28T09:28:50.826Z,64.46
2018-09-28T09:29:50.811Z,62.81
2018-09-28T09:30:50.833Z,62.60
2018-09-28T09:31:50.782Z,62.20
2018-09-28T09:32:50.785Z,60.98
2018-09-28T09:33:50.769Z,61.05
2018-09-28T09:34:50.762Z,60.04
2018-09-28T09:35:50.757Z,60.44
2018-09-28T09:36:50.729Z,60.14
2018-09-28T09:37:50.722Z,61.05
2018-09-28T09:38:50.712Z,60.95
2018-09-28T09:39:50.694Z,59.46
2018-09-28T09:40:50.676Z,59.94
2018-09-28T09:41:50.715Z,58.42
2018-09-28T09:42:50.655Z,59.86
2018-09-28T09:43:50.648Z,58.65
2018-09-28T09:44:50.677Z,59.97
2018-09-28T09:45:50.628Z,58.65
2018-09-28T09:46:50.629Z,58.65
2018-09-28T09:47:50.605Z,60.07
2018-09-28T09:48:50.585Z,60.98
2018-09-28T09:49:50.589Z,59.77
2018-09-28T09:50:50.563Z,59.94
2018-09-28T09:51:50.571Z,58.92
2018-09-28T09:52:50.540Z,58.52
2018-09-28T09:53:50.535Z,58.59
2018-09-28T09:54:50.536Z,58.42
2018-09-28T09:55:50.513Z,58.29
2018-09-28T09:56:50.527Z,57.88
2018-09-28T09:57:50.608Z,57.37
2018-09-28T09:58:50.488Z,58.29
2018-09-28T09:59:50.465Z,57.48
2018-09-28T10:00:50.447Z,58.90
2018-09-28T10:01:50.460Z,57.55
2018-09-28T10:02:50.457Z,57.65
2018-09-28T10:03:50.423Z,58.36
2018-09-28T10:04:50.417Z,57.88
2018-09-28T10:05:50.398Z,57.78
2018-09-28T10:06:50.377Z,58.80
2018-09-28T10:07:50.405Z,56.64
2018-09-28T10:08:50.354Z,56.95
2018-09-28T10:09:50.349Z,56.64
2018-09-28T10:10:50.344Z,55.83
2018-09-28T10:11:50.330Z,56.64
2018-09-28T10:12:50.827Z,56.23
2018-09-28T10:13:50.313Z,55.93
2018-09-28T10:14:50.297Z,55.43
2018-09-28T10:15:50.281Z,56.44
2018-09-28T10:16:50.264Z,55.04
2018-09-28T10:17:50.273Z,56.16
2018-09-28T10:18:50.260Z,56.05
2018-09-28T10:19:50.237Z,56.97
2018-09-28T10:20:50.234Z,56.59
2018-09-28T10:21:50.235Z,57.28
2018-09-28T10:22:50.265Z,57.07
2018-09-28T10:23:50.196Z,56.05
2018-09-28T10:24:50.172Z,57.78
2018-09-28T10:25:50.177Z,55.65
2018-09-28T10:26:50.168Z,56.26
2018-09-28T10:27:50.264Z,56.57
2018-09-28T10:28:50.171Z,56.84
2018-09-28T10:29:50.133Z,58.16
2018-09-28T10:30:50.142Z,56.64
2018-09-28T10:31:50.101Z,56.95
2018-09-28T10:32:50.102Z,55.60
2018-09-28T10:33:50.098Z,56.51
2018-09-28T10:34:50.307Z,57.62
2018-09-28T10:35:50.056Z,56.48
2018-09-28T10:36:50.057Z,55.10
2018-09-28T10:37:50.037Z,57.32
2018-09-28T10:38:50.043Z,56.38
2018-09-28T10:39:50.067Z,53.85
2018-09-28T10:40:50.094Z,54.05
2018-09-28T10:41:49.991Z,54.05
2018-09-28T10:42:49.993Z,53.75
2018-09-28T10:43:49.985Z,53.72
2018-09-28T10:44:49.954Z,54.03
2018-09-28T10:45:50.103Z,53.63
2018-09-28T10:46:49.942Z,53.22
2018-09-28T10:47:49.933Z,53.50
2018-09-28T10:48:51.393Z,52.28
2018-09-28T10:49:49.903Z,52.08
2018-09-28T10:50:50.059Z,52.19
2018-09-28T10:51:49.980Z,53.40
2018-09-28T10:52:49.987Z,52.28
2018-09-28T10:53:49.883Z,51.40
2018-09-28T10:54:49.905Z,52.31
2018-09-28T10:55:49.828Z,52.92
2018-09-28T10:56:50.028Z,53.02
2018-09-28T10:57:49.818Z,51.78
2018-09-28T10:58:49.868Z,53.09
2018-09-28T10:59:49.801Z,53.60
2018-09-28T11:00:49.778Z,52.79
2018-09-28T11:01:49.766Z,52.08
2018-09-28T11:02:49.766Z,50.95
2018-09-28T11:03:49.889Z,51.25
2018-09-28T11:04:49.796Z,51.15
2018-09-28T11:05:49.763Z,51.35
2018-09-28T11:06:49.712Z,51.86
2018-09-28T11:07:49.751Z,52.87
2018-09-28T11:08:49.735Z,52.67
2018-09-28T11:09:49.723Z,51.45
2018-09-28T11:10:49.737Z,53.17
2018-09-28T11:11:49.653Z,51.65
2018-09-28T11:12:49.644Z,52.67
2018-09-28T11:13:49.629Z,52.16
2018-09-28T11:14:49.685Z,53.38
2018-09-28T11:15:49.710Z,53.14
2018-09-28T11:16:49.600Z,54.46
2018-09-28T11:17:49.590Z,52.14
2018-09-28T11:18:49.641Z,50.62
2018-09-28T11:19:49.568Z,52.56
2018-09-28T11:20:49.568Z,53.45
2018-09-28T11:21:49.611Z,52.03
2018-09-28T11:22:49.537Z,52.03
2018-09-28T11:23:49.514Z,53.07
2018-09-28T11:24:49.506Z,53.65
2018-09-28T11:25:49.558Z,52.16
2018-09-28T11:26:49.498Z,51.15
2018-09-28T11:27:49.577Z,50.37
2018-09-28T11:28:49.476Z,52.72
2018-09-28T11:29:49.492Z,51.37
2018-09-28T11:30:49.466Z,54.00
2018-09-28T11:31:49.440Z,52.48
2018-09-28T11:32:49.445Z,53.90
2018-09-28T11:33:49.527Z,51.37
2018-09-28T11:35:50.487Z,51.07
2018-09-28T11:36:49.383Z,49.88
2018-09-28T11:37:49.496Z,49.30
2018-09-28T11:38:49.365Z,49.90
2018-09-28T11:39:49.345Z,49.02
2018-09-28T11:40:49.375Z,50.46
2018-09-28T11:41:49.329Z,49.85
2018-09-28T11:42:49.320Z,50.76
2018-09-28T11:43:49.294Z,51.27
2018-09-28T11:44:49.296Z,51.47
2018-09-28T11:45:49.389Z,49.83
2018-09-28T11:46:49.264Z,49.83
2018-09-28T11:47:49.255Z,50.13
2018-09-28T11:48:49.270Z,50.34
2018-09-28T11:49:49.227Z,50.01
2018-09-28T11:50:49.297Z,49.68
2018-09-28T11:51:49.259Z,48.57
2018-09-28T11:52:49.259Z,48.06
2018-09-28T11:53:49.183Z,48.97
2018-09-28T11:54:49.174Z,48.16
2018-09-28T11:55:49.198Z,47.03
2018-09-28T11:56:49.158Z,47.43
2018-09-28T11:57:49.140Z,47.43
2018-09-28T11:58:49.132Z,47.00
2018-09-28T11:59:49.146Z,46.20
2018-09-28T12:00:49.126Z,45.16
2018-09-28T12:01:49.114Z,44.86
2018-09-28T12:02:49.097Z,43.85
2018-09-28T12:03:49.201Z,44.76
2018-09-28T12:04:49.062Z,45.75
2018-09-28T12:05:49.091Z,46.25
2018-09-28T12:06:49.188Z,44.23
2018-09-28T12:07:49.032Z,43.83
2018-09-28T12:08:49.060Z,44.31
2018-09-28T12:09:49.130Z,43.51
2018-09-28T12:10:49.059Z,45.83
2018-09-28T12:11:49.019Z,44.51
2018-09-28T12:12:49.156Z,44.34
2018-09-28T12:13:48.961Z,44.03
2018-09-28T12:14:48.952Z,44.25
2018-09-28T12:15:48.980Z,45.16
2018-09-28T12:16:48.944Z,45.57
2018-09-28T12:17:48.960Z,45.25
2018-09-28T12:18:48.986Z,43.55
2018-09-28T12:19:48.896Z,44.15
2018-09-28T12:20:48.901Z,44.64
2018-09-28T12:21:48.929Z,45.65
2018-09-28T12:22:48.873Z,44.84
2018-09-28T12:23:48.862Z,44.23
2018-09-28T12:24:48.897Z,45.45
2018-09-28T12:25:48.825Z,43.93
2018-09-28T12:26:48.884Z,43.63
2018-09-28T12:27:48.889Z,44.54
2018-09-28T12:28:48.805Z,44.23
2018-09-28T12:29:48.790Z,45.95
2018-09-28T12:30:48.870Z,45.54
2018-09-28T12:31:48.792Z,45.53
2018-09-28T12:32:48.749Z,45.73
2018-09-28T12:33:48.870Z,45.40
2018-09-28T12:34:48.727Z,44.79
2018-09-28T12:35:48.777Z,45.40
2018-09-28T12:36:48.792Z,44.92
2018-09-28T12:37:48.710Z,45.20
2018-09-28T12:38:48.702Z,45.61
2018-09-28T12:39:48.808Z,45.62
2018-09-28T12:40:48.666Z,46.43
2018-09-28T12:41:48.675Z,45.73
2018-09-28T12:42:48.722Z,45.42
2018-09-28T12:43:48.665Z,46.43
2018-09-28T12:44:48.664Z,46.01
2018-09-28T12:45:48.632Z,46.53
2018-09-28T12:46:48.628Z,46.15
2018-09-28T12:47:48.607Z,47.49
2018-09-28T12:48:48.654Z,46.28
2018-09-28T12:49:48.577Z,47.08
2018-09-28T12:50:48.613Z,46.36
2018-09-28T12:51:48.560Z,45.95
2018-09-28T12:52:48.582Z,47.24
2018-09-28T12:53:48.639Z,47.14